Bay City, TX

1:24 AM CDT on April 27, 2015 (GMT -0500)
Brazoria County | | Change Station
CLOSE
Current Station
Airport
Location: Angleton,
Elevation: 23 ft
Nearby Weather Stations

Elev 23 ft 29.12 °N, 95.46 °W | Updated 31 minutes ago

Overcast
Overcast
74 °F
Feels Like 74 °F
N
10
Wind Variable Wind from SE

Today
High -- | Low -- °F
--% Chance of Precip.
Yesterday
High -- | Low -- °F
Precip. -- in
6:46 AM 7:57 PM
Waxing Gibbous, 62% visible
Pressure 29.56 in
Visibility 7.0 miles
Clouds Overcast 800 ft
Dew Point 73 °F
Humidity 97%
Rainfall 0.00 in
Snow Depth Not available.
UV 0 out of 12
Pollen 7.30 out of 12
Air Quality Not available.
Flu Activity Local Activity
METAR KLBX 270553Z AUTO 14009KT 7SM OVC008 23/23 A2956 RMK AO2 SLP010 60003 T02330228 10244 20228 402830217 58014

More Conditions Fewer Conditions

Pressure 29.56 in
Visibility 7.0 miles
Clouds Overcast 800 ft
Dew Point 73 °F
Humidity 97%
Rainfall 0.00 in
Snow Depth Not available.
UV 0 out of 12
Pollen 7.30 out of 12
Air Quality Not available.
Flu Activity Local Activity
METAR KLBX 270553Z AUTO 14009KT 7SM OVC008 23/23 A2956 RMK AO2 SLP010 60003 T02330228 10244 20228 402830217 58014

More Conditions Fewer Conditions

10-Day Weather Forecast

Almanac

Astronomy

Apr. 27, 2015 Rise Set
Actual Time
Civil Twilight
Nautical Twilight
Astronomical Twilight
Moon
Length of Visible Light
Length of Day
Tomorrow will be .
, % of the Moon is Illuminated

Today's Extremes

State Highs State Lows

Community

WunderPhotos

Upload Photos

1,817,272 photos uploaded!

WunderBlogs® & News

Nearby

Air Quality

  Air Quality AQ Index Pollutant
Not available.

Snow Depth

Station Depth Elevation

Earthquake Activity

City Distance Mag. Time & Date
Minimum magnitude displayed is 2.5.

Coastal Water Temperatures

Place Temperature

Stations

Nearby Weather Stations

Station Location Temp. Windchill Dew Point Humidity Wind Precip. Elev Updated Type